首页
METAR-TAF:

METAR-TAF

机场 :

齋浦爾, 印度

纬度: 26-49N, 经度: 075-48E, 海拔: 385米

当前天气观测

该预报发布于42分钟前的23:30 UTC
风速8节,风向西转西北
温度 34°C
湿度 53%
气压 1003 hPa
能見度: 4000
少量云层高于10000英尺
霾,

METAR: VIJP 162330Z 29008KT 4000 HZ FEW100 34/23 Q1003 NOSIG

时间: 05:42 (00:12 UTC)

预报

该预报发布于1小时和12分钟前的23:00 UTC
预报有效从17日的 00点(UTC)到 17日的 09点(UTC)
风速6节,风向西转西南
能見度: 4000
少量云层高于10000英尺
成为
从 17日的 04点(UTC)到 17日的 06点(UTC)
风速10节,风向西,有时为20节阵风
能見度: 5000
散云层高于3000英尺
霾, 高吹尘,

TAF: VIJP 162300Z 1700/1709 25006KT 4000 HZ FEW100 BECMG 1704/1706 27010G20KT 5000 HZ BLDU SCT030

超过4000个机场的气象观测和天气预报(METAR&TAF报告)。

可查询的气象台以黄色和红色小点在地图上表示。

将鼠标移到小点上方,可查看气象台名称。

然后点击查看天气观测和预报。

如需切换地图:点击带黑十字的绿色按钮放大地图;点击带横线的绿色按钮缩小地图;或者点击绿色箭头查看邻近地区的地图。


METAR-TAF: